Latest Weather Observations for Nambour

IDQ60901

Issued at 2:01 pm EST Wednesday 24 May 2017 (issued every 10 minutes, with the page automatically refreshed every 10 minutes)

About weather observations | Map of Brisbane area stations | Latest observations for Brisbane area | Other Formats
Station Details ID: 040988 Name: NAMBOUR DAFF - HILLSIDE Lat: -26.64 Lon: 152.94 Height: 53.24 m
Data from the previous 72 hours. | See also: Recent months at Nambour
Date/Time
EST
Temp
°C
App
Temp
°C
Dew
Point
°C
Rel
Hum
%
Delta-T
°C
Wind Press
QNH
hPa
Press
MSL
hPa
Rain since
9am
mm
Dir  Spd
km/h
Gust
km/h
Spd
kts
Gust
kts
24/02:00pm 26.5 27.2 15.5 50 6.7 N 6 9 3 5 1015.8 1015.7 0.0
24/01:30pm 26.4 27.3 16.1 53 6.3 NE 6 11 3 6 1016.2 1016.1 0.0
24/01:00pm 26.2 27.5 16.2 54 6.1 NNE 4 7 2 4 1016.7 1016.6 0.0
24/12:30pm 26.0 27.2 16.8 57 5.7 NE 6 9 3 5 1017.0 1016.9 0.0
24/12:00pm 25.1 25.8 16.0 57 5.6 ENE 7 11 4 6 1017.6 1017.5 0.0
24/11:30am 24.9 26.0 16.6 60 5.1 E 6 9 3 5 1018.2 1018.1 0.0
24/11:00am 24.6 26.2 16.8 62 4.8 ENE 4 9 2 5 1018.8 1018.7 0.0
24/10:30am 24.0 25.0 16.3 62 4.7 ENE 6 9 3 5 1019.3 1019.2 0.0
24/10:00am 23.4 24.7 16.2 64 4.4 ENE 4 6 2 3 1019.6 1019.5 0.0
24/09:30am 22.7 24.5 16.5 68 3.8 ENE 2 6 1 3 1019.8 1019.7 0.0
24/09:00am 21.1 23.0 16.7 76 2.7 NE 2 2 1 1 1020.0 1019.9 0.2
24/08:30am 19.4 21.3 16.6 84 1.7 ENE 2 4 1 2 1020.0 1019.9 0.2
24/08:00am 17.6 19.8 16.5 93 0.7 CALM 0 0 0 0 1019.9 1019.8 0.2
24/07:30am 16.2 18.0 15.6 96 0.4 CALM 0 0 0 0 1019.7 1019.6 0.2
24/07:00am 15.2 16.7 14.7 97 0.3 CALM 0 0 0 0 1019.5 1019.4 0.2
24/06:30am 14.5 15.7 13.9 96 0.3 CALM 0 0 0 0 1019.4 1019.3 0.2
24/06:00am 14.5 15.7 13.9 96 0.3 CALM 0 0 0 0 1019.3 1019.2 0.2
24/05:30am 14.8 16.1 14.2 96 0.3 CALM 0 0 0 0 1019.1 1019.0 0.2
24/05:00am 15.0 16.4 14.4 96 0.3 CALM 0 0 0 0 1018.9 1018.8 0.0
24/04:30am 14.5 15.7 13.9 96 0.3 CALM 0 0 0 0 1018.6 1018.5 0.0
24/04:00am 14.5 15.7 13.9 96 0.3 CALM 0 0 0 0 1018.4 1018.3 0.0
24/03:30am 15.0 16.4 14.4 96 0.3 CALM 0 0 0 0 1018.4 1018.3 0.0
24/03:00am 15.0 16.4 14.4 96 0.3 CALM 0 0 0 0 1018.6 1018.5 0.0
24/02:30am 15.4 17.0 14.8 96 0.3 CALM 0 0 0 0 1018.7 1018.6 0.0
24/02:00am 16.1 17.9 15.5 96 0.3 CALM 0 0 0 0 1019.1 1019.0 0.0
24/01:30am 15.7 17.4 15.1 96 0.3 CALM 0 0 0 0 1019.3 1019.2 0.0
24/01:00am 16.1 17.9 15.5 96 0.3 CALM 0 0 0 0 1019.8 1019.7 0.0
24/12:30am 16.0 17.8 15.4 96 0.3 CALM 0 0 0 0 1020.1 1020.0 0.0
24/12:00am 16.3 18.2 15.7 96 0.4 CALM 0 0 0 0 1020.3 1020.2 0.0
 
Date/Time
EST
Temp
°C
App
Temp
°C
Dew
Point
°C
Rel
Hum
%
Delta-T
°C
Wind Press
QNH
hPa
Press
MSL
hPa
Rain since
9am
mm
Dir  Spd
km/h
Gust
km/h
Spd
kts
Gust
kts
23/11:30pm 16.5 18.5 15.9 96 0.4 CALM 0 0 0 0 1020.6 1020.5 0.0
23/11:00pm 16.4 18.2 15.6 95 0.5 CALM 0 0 0 0 1020.7 1020.6 0.0
23/10:30pm 16.4 18.2 15.6 95 0.5 CALM 0 0 0 0 1020.8 1020.7 0.0
23/10:00pm 16.8 18.8 16.0 95 0.5 CALM 0 0 0 0 1020.6 1020.5 0.0
23/09:30pm 16.9 18.9 16.1 95 0.5 CALM 0 0 0 0 1020.6 1020.5 0.0
23/09:00pm 17.0 19.1 16.2 95 0.5 CALM 0 0 0 0 1020.5 1020.4 0.0
23/08:30pm 17.4 19.6 16.4 94 0.6 CALM 0 0 0 0 1020.5 1020.4 0.0
23/08:00pm 17.7 20.0 16.7 94 0.6 CALM 0 0 0 0 1020.4 1020.3 0.0
23/07:30pm 17.8 20.0 16.5 92 0.8 CALM 0 0 0 0 1020.2 1020.1 0.0
23/07:00pm 18.3 20.6 16.8 91 0.9 CALM 0 0 0 0 1020.2 1020.1 0.0
23/06:30pm 18.5 20.8 16.7 89 1.1 CALM 0 0 0 0 1020.0 1019.9 0.0
23/06:00pm 19.2 21.2 16.1 82 1.8 CALM 0 0 0 0 1019.7 1019.6 0.0
23/05:30pm 20.2 22.4 16.6 80 2.2 CALM 0 0 0 0 1019.4 1019.3 0.0
23/05:00pm 21.3 23.3 16.0 72 3.2 CALM 0 0 0 0 1019.1 1019.0 0.0
23/04:30pm 22.3 23.6 16.1 68 3.8 ENE 4 9 2 5 1019.0 1018.9 0.0
23/04:00pm 22.9 23.6 15.7 64 4.3 ENE 6 9 3 5 1018.8 1018.7 0.0
23/03:30pm 23.5 24.1 15.8 62 4.7 E 7 11 4 6 1018.6 1018.5 0.0
23/03:00pm 24.8 25.5 16.0 58 5.4 ENE 7 11 4 6 1018.4 1018.3 0.0
23/02:30pm 24.0 24.7 14.4 55 5.7 ESE 4 9 2 5 1018.4 1018.3 0.0
23/02:00pm 25.5 26.3 14.9 52 6.4 E 4 11 2 6 1018.5 1018.4 0.0
23/01:30pm 25.1 25.6 13.9 49 6.6 SE 4 9 2 5 1018.8 1018.7 0.0
23/01:00pm 25.2 25.7 14.9 52 6.2 SE 6 9 3 5 1019.2 1019.1 0.0
23/12:30pm 25.1 26.1 15.4 55 5.9 ENE 4 9 2 5 1019.7 1019.6 0.0
23/12:00pm 24.7 25.3 15.3 56 5.7 E 6 11 3 6 1020.1 1020.0 0.0
23/11:30am 24.7 25.6 16.2 59 5.2 S 6 13 3 7 1020.7 1020.6 0.0
23/11:00am 24.1 24.8 15.6 59 5.1 SW 6 11 3 6 1021.2 1021.1 0.0
23/10:30am 23.8 24.8 16.3 63 4.6 SE 6 13 3 7 1021.6 1021.5 0.0
23/10:00am 23.3 24.3 16.8 67 4.0 ESE 7 11 4 6 1022.0 1021.9 0.0
23/09:30am 22.7 23.9 16.9 70 3.6 ESE 6 11 3 6 1022.3 1022.2 0.0
23/09:00am 22.3 23.7 17.4 74 3.0 SSE 6 9 3 5 1022.3 1022.2 0.2
23/08:30am 21.7 24.1 17.9 79 2.4 E 2 6 1 3 1022.2 1022.1 0.2
23/08:00am 20.0 22.9 18.3 90 1.1 CALM 0 0 0 0 1022.0 1021.9 0.2
23/07:30am 18.0 20.5 17.2 95 0.5 CALM 0 0 0 0 1021.6 1021.5 0.2
23/07:00am 16.7 18.7 16.1 96 0.4 CALM 0 0 0 0 1021.5 1021.4 0.2
23/06:30am 15.9 17.6 15.3 96 0.3 CALM 0 0 0 0 1021.1 1021.0 0.2
23/06:00am 16.9 19.0 16.3 96 0.4 CALM 0 0 0 0 1020.7 1020.6 0.2
23/05:30am 16.6 18.6 16.0 96 0.4 CALM 0 0 0 0 1020.4 1020.3 0.0
23/05:00am 16.4 18.3 15.8 96 0.4 CALM 0 4 0 2 1020.3 1020.2 0.0
23/04:30am 15.8 17.0 15.0 95 0.5 S 2 4 1 2 1020.3 1020.2 0.0
23/04:00am 16.8 18.9 16.2 96 0.4 CALM 0 0 0 0 1020.3 1020.2 0.0
23/03:30am 16.7 18.7 15.9 95 0.5 CALM 0 0 0 0 1020.2 1020.1 0.0
23/03:00am 17.0 19.1 16.2 95 0.5 CALM 0 0 0 0 1020.1 1020.0 0.0
23/02:30am 17.6 19.9 16.8 95 0.5 CALM 0 0 0 0 1020.3 1020.2 0.0
23/02:00am 17.9 20.3 17.1 95 0.5 CALM 0 0 0 0 1020.3 1020.2 0.0
23/01:30am 17.7 20.1 16.9 95 0.5 CALM 0 0 0 0 1020.5 1020.4 0.0
23/01:00am 17.8 20.1 16.8 94 0.6 CALM 0 0 0 0 1020.7 1020.6 0.0
23/12:30am 18.4 21.0 17.4 94 0.6 CALM 0 0 0 0 1020.8 1020.7 0.0
23/12:00am 18.4 20.9 17.2 93 0.7 CALM 0 0 0 0 1021.1 1021.0 0.0
 
Date/Time
EST
Temp
°C
App
Temp
°C
Dew
Point
°C
Rel
Hum
%
Delta-T
°C
Wind Press
QNH
hPa
Press
MSL
hPa
Rain since
9am
mm
Dir  Spd
km/h
Gust
km/h
Spd
kts
Gust
kts
22/11:30pm 18.7 21.4 17.7 94 0.6 CALM 0 2 0 1 1021.3 1021.2 0.0
22/11:00pm 18.9 21.7 17.9 94 0.6 CALM 0 0 0 0 1021.6 1021.5 0.0
22/10:30pm 18.8 21.5 17.8 94 0.6 CALM 0 4 0 2 1021.7 1021.6 0.0
22/10:00pm 18.6 20.9 17.8 95 0.5 SW 2 4 1 2 1021.8 1021.7 0.0
22/09:30pm 18.0 20.0 17.0 94 0.6 WSW 2 6 1 3 1021.7 1021.6 0.0
22/09:00pm 18.1 20.2 17.1 94 0.6 SSW 2 6 1 3 1021.6 1021.5 0.0
22/08:30pm 18.4 20.8 17.1 92 0.8 CALM 0 0 0 0 1021.6 1021.5 0.0
22/08:00pm 18.7 21.2 17.2 91 0.9 CALM 0 0 0 0 1021.4 1021.3 0.0
22/07:30pm 19.0 21.5 17.3 90 1.0 CALM 0 4 0 2 1021.2 1021.1 0.0
22/07:00pm 19.4 21.7 17.7 90 1.0 WSW 2 6 1 3 1021.1 1021.0 0.0
22/06:30pm 19.0 21.5 17.3 90 1.0 CALM 0 0 0 0 1020.8 1020.7 0.0
22/06:00pm 19.2 21.4 16.6 85 1.6 CALM 0 4 0 2 1020.4 1020.3 0.0
22/05:30pm 20.0 22.2 16.6 81 2.1 CALM 0 0 0 0 1020.1 1020.0 0.0
22/05:00pm 21.1 22.9 16.5 75 2.8 SE 2 4 1 2 1020.0 1019.9 0.0
22/04:30pm 22.3 24.0 16.3 69 3.6 ESE 2 7 1 4 1019.8 1019.7 0.0
22/04:00pm 22.6 23.4 15.9 66 4.0 ESE 6 11 3 6 1019.6 1019.5 0.0
22/03:30pm 22.6 23.7 15.7 65 4.2 SE 4 9 2 5 1019.4 1019.3 0.0
22/03:00pm 24.1 25.4 17.1 65 4.3 ESE 6 9 3 5 1019.2 1019.1 0.0
22/02:30pm 25.0 26.1 17.2 62 4.9 ESE 7 15 4 8 1019.3 1019.2 0.0
22/02:00pm 23.6 24.1 15.6 61 4.8 ESE 7 13 4 7 1019.5 1019.4 0.0
22/01:30pm 23.8 23.9 15.6 60 5.0 ESE 9 17 5 9 1019.6 1019.5 0.0
22/01:00pm 24.6 25.8 17.3 64 4.5 ESE 7 13 4 7 1019.9 1019.8 0.0
22/12:30pm 23.7 25.0 17.2 67 4.0 ESE 6 13 3 7 1020.2 1020.1 0.0
22/12:00pm 24.4 26.0 16.9 63 4.6 E 4 9 2 5 1020.4 1020.3 0.0
22/11:30am 23.2 24.3 16.5 66 4.1 ESE 6 11 3 6 1020.9 1020.8 0.0
22/11:00am 24.3 26.4 18.0 68 3.9 SE 4 13 2 7 1021.2 1021.1 0.0
22/10:30am 22.6 23.1 16.6 69 3.7 ESE 9 15 5 8 1021.5 1021.4 0.0
22/10:00am 24.1 26.4 19.4 75 3.0 SE 6 11 3 6 1021.8 1021.7 0.0
22/09:30am 22.1 24.3 17.5 75 2.8 SSE 2 13 1 7 1021.9 1021.8 0.0
22/09:00am 22.2 25.0 18.8 81 2.1 SW 2 7 1 4 1021.9 1021.8 0.0
22/08:30am 20.9 23.2 17.7 82 2.0 ESE 2 7 1 4 1021.7 1021.6 0.0
22/08:00am 20.5 23.4 19.0 91 0.9 N 2 6 1 3 1021.6 1021.5 0.0
22/07:30am 19.8 22.3 18.1 90 1.1 NNE 2 6 1 3 1021.3 1021.2 0.0
22/07:00am 19.1 22.1 18.4 96 0.4 CALM 0 6 0 3 1021.0 1020.9 0.0
22/06:30am 18.3 21.0 17.7 96 0.4 CALM 0 0 0 0 1020.6 1020.5 0.0
22/06:00am 18.3 21.0 17.7 96 0.4 CALM 0 0 0 0 1020.2 1020.1 0.0
22/05:30am 18.1 20.7 17.5 96 0.4 CALM 0 0 0 0 1020.0 1019.9 0.0
22/05:00am 18.0 20.6 17.4 96 0.4 CALM 0 2 0 1 1019.6 1019.5 0.0
22/04:30am 18.2 20.8 17.6 96 0.4 CALM 0 4 0 2 1019.6 1019.5 0.0
22/04:00am 18.4 21.1 17.8 96 0.4 CALM 0 0 0 0 1019.3 1019.2 0.0
22/03:30am 17.6 20.0 17.0 96 0.4 CALM 0 0 0 0 1019.3 1019.2 0.0
22/03:00am 18.0 20.6 17.4 96 0.4 CALM 0 0 0 0 1019.3 1019.2 0.0
22/02:30am 17.4 19.7 16.8 96 0.4 CALM 0 0 0 0 1019.4 1019.3 0.0
22/02:00am 17.9 20.4 17.3 96 0.4 CALM 0 0 0 0 1019.4 1019.3 0.0
22/01:30am 16.9 19.0 16.3 96 0.4 CALM 0 0 0 0 1019.6 1019.5 0.0
22/01:00am 17.3 19.6 16.7 96 0.4 CALM 0 0 0 0 1019.6 1019.5 0.0
22/12:30am 17.0 19.2 16.4 96 0.4 CALM 0 0 0 0 1019.8 1019.7 0.0
22/12:00am 17.3 19.6 16.7 96 0.4 CALM 0 0 0 0 1019.9 1019.8 0.0
 
Date/Time
EST
Temp
°C
App
Temp
°C
Dew
Point
°C
Rel
Hum
%
Delta-T
°C
Wind Press
QNH
hPa
Press
MSL
hPa
Rain since
9am
mm
Dir  Spd
km/h
Gust
km/h
Spd
kts
Gust
kts
21/11:30pm 16.9 18.9 15.9 94 0.6 CALM 0 0 0 0 1020.1 1020.0 0.0
21/11:00pm 17.2 19.3 16.2 94 0.6 CALM 0 2 0 1 1020.1 1020.0 0.0
21/10:30pm 17.6 19.8 16.6 94 0.6 CALM 0 0 0 0 1020.1 1020.0 0.0
21/10:00pm 17.6 19.6 16.1 91 0.9 CALM 0 0 0 0 1020.2 1020.1 0.0
21/09:30pm 18.9 21.3 17.9 94 0.6 SW 2 6 1 3 1020.4 1020.3 0.0
21/09:00pm 18.7 21.3 17.5 93 0.7 CALM 0 2 0 1 1020.4 1020.3 0.0
21/08:30pm 19.1 21.5 17.9 93 0.7 S 2 7 1 4 1020.4 1020.3 0.0
21/08:00pm 18.4 20.5 17.2 93 0.7 SSW 2 6 1 3 1020.2 1020.1 0.0
21/07:30pm 18.3 20.6 16.8 91 0.9 CALM 0 0 0 0 1020.1 1020.0 0.0
21/07:00pm 19.0 21.4 17.1 89 1.2 CALM 0 4 0 2 1019.8 1019.7 0.0
21/06:30pm 19.4 21.1 16.2 82 1.9 SW 2 4 1 2 1019.4 1019.3 0.0
21/06:00pm 19.8 21.8 16.1 79 2.2 CALM 0 2 0 1 1018.9 1018.8 0.0
21/05:30pm 20.4 22.6 16.4 78 2.4 CALM 0 0 0 0 1018.6 1018.5 0.0
21/05:00pm 21.4 23.6 16.4 73 3.0 CALM 0 2 0 1 1018.3 1018.2 0.0
21/04:30pm 22.9 24.6 16.2 66 4.1 SE 2 9 1 5 1017.8 1017.7 0.0
21/04:00pm 23.4 25.2 16.4 64 4.3 SSE 2 7 1 4 1017.6 1017.5 0.0
21/03:30pm 24.2 25.5 17.2 65 4.3 ENE 6 9 3 5 1017.5 1017.4 0.0
21/03:00pm 25.3 26.6 17.2 61 5.0 ESE 6 9 3 5 1017.4 1017.3 0.0
21/02:30pm 24.4 24.9 15.6 58 5.3 ESE 7 11 4 6 1017.4 1017.3 0.0

Latest Capital City Observations: Canberra | Sydney | Melbourne | Brisbane | Adelaide | Perth | Hobart | Darwin

Other Formats:

Comma delimited format used in spreadsheet applications
http://www.bom.gov.au/fwo/IDQ60901/IDQ60901.95572.axf

JavaScript Object Notation format (JSON) in row-major order
http://www.bom.gov.au/fwo/IDQ60901/IDQ60901.95572.json